Time;durP1;ratioP1;P1;durP2;ratioP2;P2;SDS_P1;SDS_P2;PMS_P1;PMS_P2;Temp;Humidity;BMP_temperature;BMP_pressure;BME280_temperature;BME280_humidity;BME280_pressure;Samples;Min_cycle;Max_cycle;Signal;HPM_P1;HPM_P2
2022/02/05 00:00:51;;;;;;;4.20;1.30;;;;;;;;;;4914601;29;20056;-68
2022/02/05 00:03:36;;;;;;;4.22;1.25;;;;;;;;;;4914511;29;20056;-71
2022/02/05 00:06:07;;;;;;;4.68;1.20;;;;;;;;;;4901112;29;20464;-71
2022/02/05 00:08:49;;;;;;;6.60;1.08;;;;;;;;;;4914372;29;20052;-67
2022/02/05 00:11:50;;;;;;;3.92;1.08;;;;;;;;;;4914773;29;20052;-67
2022/02/05 00:14:31;;;;;;;3.75;1.20;;;;;;;;;;4898138;29;20067;-70
2022/02/05 00:20:31;;;;;;;3.75;1.10;;;;;;;;;;4880143;29;20080;-70
2022/02/05 00:40:03;;;;;;;1.55;1.00;;;;;;;;;;4909148;29;20048;-74
2022/02/05 00:42:42;;;;;;;2.60;1.00;;;;;;;;;;4916701;29;20047;-73
2022/02/05 00:45:12;;;;;;;;;;;;;;;;;;4901718;29;20574;-70
2022/02/05 00:47:45;;;;;;;2.15;0.95;;;;;;;;;;4917124;29;19923;-68
2022/02/05 00:50:21;;;;;;;3.38;1.00;;;;;;;;;;4932792;29;20055;-68
2022/02/05 00:55:55;;;;;;;3.95;1.00;;;;;;;;;;4875665;29;20061;-67
2022/02/05 00:58:25;;;;;;;5.60;1.17;;;;;;;;;;4892502;29;20056;-68
2022/02/05 01:00:56;;;;;;;2.10;1.00;;;;;;;;;;4894593;29;20056;-70
2022/02/05 01:03:27;;;;;;;2.88;1.13;;;;;;;;;;4857187;29;20413;-70
2022/02/05 01:05:57;;;;;;;4.05;1.20;;;;;;;;;;4826590;29;20060;-70
2022/02/05 01:08:28;;;;;;;4.88;1.13;;;;;;;;;;4827445;29;20453;-69
2022/02/05 01:10:59;;;;;;;2.08;0.90;;;;;;;;;;4857403;29;20061;-69
2022/02/05 01:13:32;;;;;;;3.78;0.93;;;;;;;;;;4857203;29;20528;-69
2022/02/05 01:16:15;;;;;;;2.10;1.10;;;;;;;;;;4826729;29;20061;-69
2022/02/05 01:18:47;;;;;;;6.13;1.45;;;;;;;;;;4856903;29;20060;-69
2022/02/05 01:21:31;;;;;;;3.10;1.08;;;;;;;;;;4841215;29;20188;-68
2022/02/05 01:24:05;;;;;;;4.15;1.30;;;;;;;;;;4857010;29;20061;-68
2022/02/05 01:26:42;;;;;;;2.97;1.13;;;;;;;;;;4837942;29;20050;-68
2022/02/05 01:29:47;;;;;;;1.92;1.10;;;;;;;;;;4838382;29;20085;-69
2022/02/05 01:32:12;;;;;;;3.15;1.27;;;;;;;;;;4852295;29;20060;-68
2022/02/05 01:35:11;;;;;;;2.78;1.13;;;;;;;;;;4893735;29;20053;-68
2022/02/05 01:54:16;;;;;;;4.93;1.17;;;;;;;;;;4912803;29;20060;-69
2022/02/05 01:56:54;;;;;;;6.53;1.45;;;;;;;;;;4912652;29;20056;-70
2022/02/05 01:59:46;;;;;;;10.27;1.55;;;;;;;;;;4866114;29;20063;-69
2022/02/05 02:05:11;;;;;;;4.68;1.50;;;;;;;;;;4862534;29;20049;-69
2022/02/05 02:18:42;;;;;;;3.33;1.23;;;;;;;;;;4878240;29;20060;-69
2022/02/05 02:21:25;;;;;;;4.38;1.20;;;;;;;;;;4896907;29;20060;-69
2022/02/05 02:24:03;;;;;;;7.15;1.50;;;;;;;;;;4912445;29;20056;-69
2022/02/05 02:29:10;;;;;;;6.35;1.15;;;;;;;;;;4901463;29;20064;-68
2022/02/05 02:31:44;;;;;;;2.83;1.42;;;;;;;;;;4895290;29;20056;-68
2022/02/05 02:34:20;;;;;;;4.13;1.23;;;;;;;;;;4912665;29;20048;-68
2022/02/05 02:37:01;;;;;;;3.20;1.55;;;;;;;;;;4912264;29;20620;-69
2022/02/05 02:39:41;;;;;;;3.45;1.45;;;;;;;;;;4862167;29;20052;-69
2022/02/05 02:42:12;;;;;;;3.90;1.13;;;;;;;;;;4888093;29;20065;-68
2022/02/05 02:44:43;;;;;;;3.63;1.27;;;;;;;;;;4915825;29;20052;-69
2022/02/05 02:47:14;;;;;;;3.50;1.30;;;;;;;;;;4896540;29;20501;-69
2022/02/05 02:58:18;;;;;;;3.80;1.13;;;;;;;;;;4865213;29;20049;-69
2022/02/05 03:00:54;;;;;;;4.30;1.13;;;;;;;;;;4896752;29;20517;-69
2022/02/05 03:03:26;;;;;;;4.50;1.05;;;;;;;;;;4867884;29;20057;-69
2022/02/05 03:05:57;;;;;;;2.97;1.25;;;;;;;;;;4896604;29;20063;-69
2022/02/05 03:08:27;;;;;;;5.80;1.35;;;;;;;;;;4850012;29;20236;-69
2022/02/05 03:10:57;;;;;;;2.78;1.92;;;;;;;;;;4865084;29;20572;-69
2022/02/05 03:13:27;;;;;;;4.38;1.30;;;;;;;;;;4896483;29;20052;-70
2022/02/05 03:15:58;;;;;;;5.30;1.30;;;;;;;;;;4896504;29;20532;-71
2022/02/05 03:18:33;;;;;;;4.28;1.60;;;;;;;;;;4896773;29;20525;-70
2022/02/05 03:21:04;;;;;;;3.42;1.50;;;;;;;;;;4867690;29;20063;-70
2022/02/05 03:23:35;;;;;;;6.40;1.48;;;;;;;;;;4914916;29;20060;-69
2022/02/05 03:26:05;;;;;;;5.30;1.30;;;;;;;;;;4849911;29;20061;-69
2022/02/05 03:28:39;;;;;;;7.82;1.80;;;;;;;;;;4911837;29;20085;-69
2022/02/05 03:31:09;;;;;;;5.32;1.52;;;;;;;;;;4905386;29;20060;-69
2022/02/05 03:33:40;;;;;;;2.92;1.58;;;;;;;;;;4895783;29;20061;-69
2022/02/05 03:36:10;;;;;;;4.13;1.60;;;;;;;;;;4865028;29;20082;-69
2022/02/05 03:38:41;;;;;;;6.18;1.85;;;;;;;;;;4896378;29;20075;-69
2022/02/05 03:41:11;;;;;;;3.30;1.40;;;;;;;;;;4895988;29;20060;-71
2022/02/05 03:43:41;;;;;;;4.07;1.52;;;;;;;;;;4896157;29;20072;-70
2022/02/05 03:46:12;;;;;;;5.28;1.80;;;;;;;;;;4896107;29;20059;-69
2022/02/05 03:48:45;;;;;;;6.00;1.80;;;;;;;;;;4895701;29;20418;-70
2022/02/05 03:51:15;;;;;;;4.97;1.65;;;;;;;;;;4895695;29;20063;-69
2022/02/05 03:53:45;;;;;;;4.43;1.75;;;;;;;;;;4895118;29;20425;-69
2022/02/05 03:56:15;;;;;;;4.20;1.73;;;;;;;;;;4895329;29;20056;-69
2022/02/05 03:58:45;;;;;;;3.15;1.67;;;;;;;;;;4933346;29;20062;-70
2022/02/05 04:01:16;;;;;;;6.93;2.03;;;;;;;;;;4917900;29;20056;-69
2022/02/05 04:03:46;;;;;;;6.20;1.58;;;;;;;;;;4950958;29;20051;-70
2022/02/05 04:06:16;;;;;;;4.07;1.90;;;;;;;;;;4933381;29;20063;-69
2022/02/05 04:08:49;;;;;;;12.50;1.70;;;;;;;;;;4942508;29;20562;-69
2022/02/05 04:16:57;;;;;;;4.93;1.52;;;;;;;;;;4914354;29;19931;-69
2022/02/05 04:19:27;;;;;;;3.85;1.58;;;;;;;;;;4914210;29;20064;-69
2022/02/05 04:21:58;;;;;;;4.93;1.77;;;;;;;;;;4914277;29;20056;-69
2022/02/05 04:24:29;;;;;;;3.28;1.83;;;;;;;;;;4867073;29;20060;-69
2022/02/05 04:27:00;;;;;;;6.65;1.80;;;;;;;;;;4882894;29;20107;-69
2022/02/05 04:29:29;;;;;;;6.00;2.15;;;;;;;;;;4913720;29;20064;-69
2022/02/05 04:32:00;;;;;;;7.45;1.98;;;;;;;;;;4913819;29;20615;-69
2022/02/05 04:34:30;;;;;;;4.45;2.05;;;;;;;;;;4882444;29;20064;-70
2022/02/05 04:37:04;;;;;;;3.55;1.70;;;;;;;;;;4913838;29;20056;-70
2022/02/05 04:39:38;;;;;;;5.07;2.03;;;;;;;;;;4913788;29;20104;-69
2022/02/05 04:42:19;;;;;;;3.47;1.80;;;;;;;;;;4897909;29;20061;-69
2022/02/05 04:47:50;;;;;;;3.85;1.60;;;;;;;;;;4913842;29;20052;-69
2022/02/05 04:50:42;;;;;;;3.92;1.63;;;;;;;;;;4936667;28;20052;-69
2022/02/05 04:56:34;;;;;;;5.20;1.83;;;;;;;;;;4971096;28;20055;-69
2022/02/05 05:04:31;;;;;;;5.00;2.42;;;;;;;;;;4951483;28;20058;-69
2022/02/05 05:10:22;;;;;;;5.38;2.17;;;;;;;;;;4951370;28;20546;-70
2022/02/05 05:20:57;;;;;;;6.00;1.90;;;;;;;;;;4903832;28;20062;-70
2022/02/05 05:23:27;;;;;;;9.13;2.17;;;;;;;;;;4951237;28;20047;-69
2022/02/05 05:25:58;;;;;;;9.50;2.22;;;;;;;;;;4913032;29;20524;-69
2022/02/05 05:28:28;;;;;;;13.20;2.53;;;;;;;;;;4912939;29;20460;-69
2022/02/05 05:30:58;;;;;;;5.63;2.22;;;;;;;;;;4851295;29;20060;-69
2022/02/05 05:33:29;;;;;;;6.10;2.03;;;;;;;;;;4925075;29;20052;-69
2022/02/05 05:35:59;;;;;;;4.30;2.08;;;;;;;;;;4884727;29;20139;-69
2022/02/05 05:38:31;;;;;;;5.82;2.03;;;;;;;;;;4907920;28;20479;-70
2022/02/05 05:41:02;;;;;;;4.00;2.03;;;;;;;;;;4970353;28;20414;-70
2022/02/05 05:43:47;;;;;;;6.95;2.50;;;;;;;;;;4970363;28;20055;-70
2022/02/05 05:46:30;;;;;;;;;;;;;;;;;;4912825;29;20056;-70
2022/02/05 05:49:16;;;;;;;9.55;2.38;;;;;;;;;;4912821;29;19931;-69
2022/02/05 05:51:48;;;;;;;3.30;1.90;;;;;;;;;;4912703;29;20056;-70
2022/02/05 05:54:18;;;;;;;8.43;2.58;;;;;;;;;;4893715;29;20048;-70
2022/02/05 05:56:49;;;;;;;9.05;2.22;;;;;;;;;;4893726;29;20159;-70
2022/02/05 05:59:19;;;;;;;11.45;2.35;;;;;;;;;;4893900;29;20068;-70
2022/02/05 06:01:49;;;;;;;8.18;2.30;;;;;;;;;;4893870;29;20060;-70
2022/02/05 06:04:20;;;;;;;5.95;2.60;;;;;;;;;;4924285;29;20060;-70
2022/02/05 06:06:50;;;;;;;11.50;2.22;;;;;;;;;;4900016;29;20056;-70
2022/02/05 06:09:20;;;;;;;5.10;2.10;;;;;;;;;;4931352;29;20048;-70
2022/02/05 06:11:50;;;;;;;10.00;2.38;;;;;;;;;;4931642;29;20074;-70
2022/02/05 06:14:25;;;;;;;5.47;2.05;;;;;;;;;;4931271;29;20048;-70
2022/02/05 06:17:05;;;;;;;4.32;2.35;;;;;;;;;;4886341;29;20439;-71
2022/02/05 06:19:39;;;;;;;8.70;2.38;;;;;;;;;;4935582;29;20063;-70
2022/02/05 06:22:09;;;;;;;3.58;2.05;;;;;;;;;;4920383;29;20044;-69
2022/02/05 06:24:39;;;;;;;7.75;2.60;;;;;;;;;;4950821;29;20059;-69
2022/02/05 06:27:09;;;;;;;7.68;2.20;;;;;;;;;;4954499;29;20063;-70
2022/02/05 06:29:40;;;;;;;8.82;2.63;;;;;;;;;;4938606;29;20047;-70
2022/02/05 06:32:10;;;;;;;7.85;2.70;;;;;;;;;;4918079;28;20110;-70
2022/02/05 06:34:42;;;;;;;8.48;2.63;;;;;;;;;;4973654;28;20050;-70
2022/02/05 06:37:12;;;;;;;7.05;2.63;;;;;;;;;;4926046;28;20503;-70
2022/02/05 06:39:45;;;;;;;7.80;2.50;;;;;;;;;;4973709;28;20058;-69
2022/02/05 06:42:16;;;;;;;7.55;2.50;;;;;;;;;;4910790;28;20066;-69
2022/02/05 06:44:46;;;;;;;6.10;3.25;;;;;;;;;;4953808;29;20047;-69
2022/02/05 06:47:16;;;;;;;6.13;2.55;;;;;;;;;;4954115;29;20051;-69
2022/02/05 06:49:47;;;;;;;8.13;2.92;;;;;;;;;;4906551;29;20058;-70
2022/02/05 06:52:18;;;;;;;9.93;2.83;;;;;;;;;;4971086;28;20525;-69
2022/02/05 06:54:49;;;;;;;10.10;2.63;;;;;;;;;;4992630;28;20437;-70
2022/02/05 06:57:19;;;;;;;6.05;2.47;;;;;;;;;;4992682;28;20051;-69
2022/02/05 06:59:50;;;;;;;8.48;2.42;;;;;;;;;;4992515;28;20061;-69
2022/02/05 07:02:20;;;;;;;6.47;2.35;;;;;;;;;;4992573;28;20070;-69
2022/02/05 07:04:51;;;;;;;4.95;2.65;;;;;;;;;;4992609;28;20062;-70
2022/02/05 07:07:21;;;;;;;10.40;2.47;;;;;;;;;;4992724;28;20051;-69
2022/02/05 07:09:51;;;;;;;8.88;2.72;;;;;;;;;;4953191;29;20058;-69
2022/02/05 07:12:21;;;;;;;6.38;2.72;;;;;;;;;;4953615;29;20643;-69
2022/02/05 07:15:05;;;;;;;5.55;2.75;;;;;;;;;;4953507;29;20081;-69
2022/02/05 07:17:45;;;;;;;7.95;3.35;;;;;;;;;;4953680;29;20066;-69
2022/02/05 07:20:40;;;;;;;6.45;2.95;;;;;;;;;;4934241;29;20068;-69
2022/02/05 07:31:27;;;;;;;6.75;2.63;;;;;;;;;;4895613;29;20048;-69
2022/02/05 07:34:00;;;;;;;6.28;2.80;;;;;;;;;;4896467;29;20063;-70
2022/02/05 07:36:31;;;;;;;8.25;2.75;;;;;;;;;;4899913;29;20053;-70
2022/02/05 07:39:01;;;;;;;6.63;2.90;;;;;;;;;;4918482;29;20056;-69
2022/02/05 07:41:31;;;;;;;5.65;2.90;;;;;;;;;;4914767;29;20067;-71
2022/02/05 07:44:01;;;;;;;10.68;3.22;;;;;;;;;;4914722;29;20063;-71
2022/02/05 07:46:32;;;;;;;8.98;2.97;;;;;;;;;;4914709;29;20057;-70
2022/02/05 07:49:03;;;;;;;9.40;3.00;;;;;;;;;;4899107;29;20075;-71
2022/02/05 07:51:33;;;;;;;6.38;3.05;;;;;;;;;;4914884;29;20063;-70
2022/02/05 07:54:04;;;;;;;7.47;3.05;;;;;;;;;;4914659;29;20060;-69
2022/02/05 07:56:35;;;;;;;6.47;2.67;;;;;;;;;;4914583;29;20440;-69
2022/02/05 07:59:06;;;;;;;7.10;2.70;;;;;;;;;;4914945;29;20052;-69
2022/02/05 08:01:35;;;;;;;9.90;3.60;;;;;;;;;;4930194;29;20063;-70
2022/02/05 08:04:06;;;;;;;5.47;3.20;;;;;;;;;;4914617;29;20052;-73
2022/02/05 08:06:37;;;;;;;5.93;2.97;;;;;;;;;;4914610;29;20052;-73
2022/02/05 08:12:08;;;;;;;8.45;2.92;;;;;;;;;;4914159;29;20060;-71
2022/02/05 08:14:43;;;;;;;7.40;3.03;;;;;;;;;;4914486;29;20060;-71
2022/02/05 08:17:27;;;;;;;8.38;3.60;;;;;;;;;;4882855;29;20059;-70
2022/02/05 08:19:58;;;;;;;7.20;2.65;;;;;;;;;;4883118;29;20052;-70
2022/02/05 08:22:29;;;;;;;6.57;2.88;;;;;;;;;;4945974;29;20471;-70
2022/02/05 08:24:59;;;;;;;7.07;3.22;;;;;;;;;;4952362;29;20052;-70
2022/02/05 08:27:29;;;;;;;7.88;2.80;;;;;;;;;;4936766;29;20051;-72
2022/02/05 08:30:06;;;;;;;11.88;3.53;;;;;;;;;;4920473;29;20059;-71
2022/02/05 08:32:36;;;;;;;8.65;2.65;;;;;;;;;;4952318;29;20546;-71
2022/02/05 08:35:08;;;;;;;5.78;2.83;;;;;;;;;;4952121;29;20047;-71
2022/02/05 08:37:45;;;;;;;6.38;2.88;;;;;;;;;;4952154;29;20047;-70
2022/02/05 08:40:16;;;;;;;13.55;2.83;;;;;;;;;;4936067;29;20043;-71
2022/02/05 08:42:47;;;;;;;7.18;2.97;;;;;;;;;;4936266;29;20063;-71
2022/02/05 08:45:17;;;;;;;9.20;3.15;;;;;;;;;;4919970;29;20078;-71
2022/02/05 08:47:48;;;;;;;7.53;2.85;;;;;;;;;;4936283;29;20168;-70
2022/02/05 08:50:18;;;;;;;4.85;2.60;;;;;;;;;;4974956;28;20463;-70
2022/02/05 08:52:53;;;;;;;9.13;2.58;;;;;;;;;;5012603;28;20046;-70
2022/02/05 08:55:28;;;;;;;7.75;2.42;;;;;;;;;;4970677;28;20522;-70
2022/02/05 08:58:01;;;;;;;5.10;2.80;;;;;;;;;;4951317;29;20523;-70
2022/02/05 09:00:32;;;;;;;6.45;2.70;;;;;;;;;;4935419;29;20052;-70
2022/02/05 09:03:09;;;;;;;5.00;2.70;;;;;;;;;;4873610;29;20055;-69
2022/02/05 09:05:45;;;;;;;4.93;2.75;;;;;;;;;;4951657;29;20157;-70
2022/02/05 09:08:30;;;;;;;7.65;2.92;;;;;;;;;;4916520;29;20059;-69
2022/02/05 09:11:16;;;;;;;8.18;2.92;;;;;;;;;;4932161;29;20051;-70
2022/02/05 09:16:17;;;;;;;6.28;2.97;;;;;;;;;;4932261;29;20047;-69
2022/02/05 09:18:47;;;;;;;8.30;3.13;;;;;;;;;;4885147;29;20063;-69
2022/02/05 09:21:18;;;;;;;6.00;2.97;;;;;;;;;;4900974;29;20048;-70
2022/02/05 09:23:54;;;;;;;9.02;3.05;;;;;;;;;;4932183;29;20511;-69
2022/02/05 09:26:25;;;;;;;9.88;3.08;;;;;;;;;;4932177;29;20056;-70
2022/02/05 09:29:02;;;;;;;6.65;2.85;;;;;;;;;;4900663;29;20052;-69
2022/02/05 09:31:35;;;;;;;6.78;2.85;;;;;;;;;;4931785;29;20046;-69
2022/02/05 09:34:06;;;;;;;5.53;2.78;;;;;;;;;;4903285;29;20055;-70
2022/02/05 09:36:39;;;;;;;7.90;3.33;;;;;;;;;;4986396;28;20058;-69
2022/02/05 09:39:13;;;;;;;14.27;3.20;;;;;;;;;;4957982;28;20054;-70
2022/02/05 09:41:45;;;;;;;7.13;3.13;;;;;;;;;;4950766;29;20047;-69
2022/02/05 09:44:16;;;;;;;7.38;2.80;;;;;;;;;;4903443;29;20063;-70
2022/02/05 09:46:46;;;;;;;8.52;3.22;;;;;;;;;;4938924;28;20050;-69
2022/02/05 09:49:18;;;;;;;12.45;3.25;;;;;;;;;;4938205;28;20059;-69
2022/02/05 09:51:56;;;;;;;7.80;2.72;;;;;;;;;;4969485;28;20051;-69
2022/02/05 09:54:28;;;;;;;6.22;3.03;;;;;;;;;;4969988;28;20055;-69
2022/02/05 09:56:59;;;;;;;6.47;3.13;;;;;;;;;;4970221;28;20404;-69
2022/02/05 09:59:29;;;;;;;10.75;3.47;;;;;;;;;;4969949;28;20046;-69
2022/02/05 10:02:22;;;;;;;11.90;5.22;;;;;;;;;;4931274;29;20063;-68
2022/02/05 10:05:02;;;;;;;8.88;4.35;;;;;;;;;;4896514;29;20060;-68
2022/02/05 10:08:03;;;;;;;6.82;2.92;;;;;;;;;;4865630;29;20570;-69
2022/02/05 10:10:46;;;;;;;6.03;3.17;;;;;;;;;;4912498;29;20060;-68
2022/02/05 10:13:19;;;;;;;12.13;4.28;;;;;;;;;;4912482;29;20052;-68
2022/02/05 10:15:53;;;;;;;8.23;3.40;;;;;;;;;;4881172;29;20068;-69
2022/02/05 10:18:26;;;;;;;12.98;5.00;;;;;;;;;;4916392;29;20044;-69
2022/02/05 10:20:59;;;;;;;9.15;4.30;;;;;;;;;;4919042;29;20055;-68
2022/02/05 10:23:31;;;;;;;13.57;4.13;;;;;;;;;;4950667;29;20126;-68
2022/02/05 10:26:02;;;;;;;9.38;4.30;;;;;;;;;;4950548;29;20086;-68
2022/02/05 10:28:33;;;;;;;9.35;4.20;;;;;;;;;;4950361;29;20419;-69
2022/02/05 10:31:03;;;;;;;7.13;3.90;;;;;;;;;;4950379;29;20058;-69
2022/02/05 10:33:35;;;;;;;10.90;4.63;;;;;;;;;;4950305;29;20090;-68
2022/02/05 10:36:28;;;;;;;;;;;;;;;;;;4951158;29;20063;-69
2022/02/05 10:45:03;;;;;;;8.95;4.30;;;;;;;;;;4950278;29;20515;-69
2022/02/05 10:47:53;;;;;;;9.57;4.00;;;;;;;;;;4950369;29;20059;-69
2022/02/05 10:50:30;;;;;;;7.95;3.88;;;;;;;;;;4950884;28;20802;-70
2022/02/05 10:53:08;;;;;;;10.88;3.75;;;;;;;;;;4918500;29;20055;-70
2022/02/05 11:06:12;;;;;;;8.82;3.72;;;;;;;;;;4918608;29;20459;-70
2022/02/05 11:08:43;;;;;;;6.45;3.78;;;;;;;;;;4934413;29;20086;-70
2022/02/05 11:14:27;;;;;;;8.43;3.50;;;;;;;;;;4934321;29;20407;-70
2022/02/05 11:19:50;;;;;;;7.65;3.08;;;;;;;;;;4890908;29;20501;-71
2022/02/05 11:22:21;;;;;;;6.95;3.28;;;;;;;;;;4877663;29;20072;-70
2022/02/05 11:24:53;;;;;;;5.93;3.13;;;;;;;;;;4877568;29;20536;-71
2022/02/05 11:27:24;;;;;;;5.55;3.00;;;;;;;;;;4873565;29;20066;-71
2022/02/05 11:29:54;;;;;;;5.88;3.47;;;;;;;;;;4877259;29;20073;-71
2022/02/05 11:32:32;;;;;;;6.38;3.17;;;;;;;;;;4883142;29;20063;-71
2022/02/05 11:35:09;;;;;;;6.70;3.25;;;;;;;;;;4915179;29;20068;-71
2022/02/05 11:38:00;;;;;;;5.30;3.38;;;;;;;;;;4921957;29;20051;-71
2022/02/05 11:40:42;;;;;;;5.95;3.20;;;;;;;;;;4867795;29;20413;-71
2022/02/05 11:43:15;;;;;;;6.15;3.45;;;;;;;;;;4914933;29;20068;-71
2022/02/05 11:46:04;;;;;;;8.75;3.40;;;;;;;;;;4912478;29;20056;-72
2022/02/05 11:48:50;;;;;;;5.35;3.00;;;;;;;;;;4914944;29;20067;-73
2022/02/05 11:51:21;;;;;;;11.10;3.30;;;;;;;;;;4914772;29;20067;-72
2022/02/05 11:54:00;;;;;;;7.45;3.35;;;;;;;;;;4883060;29;20067;-72
2022/02/05 11:57:02;;;;;;;5.95;2.92;;;;;;;;;;4900699;29;20048;-72
2022/02/05 11:59:55;;;;;;;6.57;3.35;;;;;;;;;;4883160;29;20056;-72
2022/02/05 12:02:42;;;;;;;6.72;2.95;;;;;;;;;;4914210;29;20063;-73
2022/02/05 12:05:24;;;;;;;5.60;2.97;;;;;;;;;;4894206;29;20052;-71
2022/02/05 12:08:10;;;;;;;7.00;3.20;;;;;;;;;;4903858;29;20059;-71
2022/02/05 12:10:42;;;;;;;4.75;3.05;;;;;;;;;;4952556;29;20054;-72
2022/02/05 12:13:15;;;;;;;7.05;3.30;;;;;;;;;;4952698;28;20054;-73
2022/02/05 12:16:11;;;;;;;8.13;3.35;;;;;;;;;;4949817;29;20047;-72
2022/02/05 12:19:16;;;;;;;6.85;3.60;;;;;;;;;;4861365;29;20057;-73
2022/02/05 12:22:12;;;;;;;7.20;3.55;;;;;;;;;;4866550;29;20052;-73
2022/02/05 12:25:14;;;;;;;13.60;3.60;;;;;;;;;;4866139;29;20053;-72
2022/02/05 12:27:46;;;;;;;8.40;3.75;;;;;;;;;;4869123;29;20053;-73
2022/02/05 12:30:37;;;;;;;10.02;4.30;;;;;;;;;;4840106;29;20079;-73
2022/02/05 12:33:09;;;;;;;7.68;3.85;;;;;;;;;;4872040;29;20101;-73
2022/02/05 12:35:51;;;;;;;10.55;4.22;;;;;;;;;;4805988;29;20188;-73
2022/02/05 12:38:22;;;;;;;8.32;3.60;;;;;;;;;;4853129;29;20058;-73
2022/02/05 12:40:52;;;;;;;4.82;3.15;;;;;;;;;;4882687;29;20056;-74
2022/02/05 12:43:24;;;;;;;6.25;3.28;;;;;;;;;;4885406;29;20060;-74
2022/02/05 12:46:06;;;;;;;5.07;3.28;;;;;;;;;;4893831;29;20052;-75
2022/02/05 12:48:37;;;;;;;9.07;3.45;;;;;;;;;;4867897;29;20788;-75
2022/02/05 12:51:07;;;;;;;;;;;;;;;;;;4822790;29;20057;-75
2022/02/05 12:53:39;;;;;;;7.30;3.20;;;;;;;;;;4891472;29;19930;-75
2022/02/05 12:56:16;;;;;;;5.93;3.28;;;;;;;;;;4949329;28;20426;-76
2022/02/05 12:59:07;;;;;;;7.30;3.33;;;;;;;;;;4950171;29;20451;-76
2022/02/05 13:01:49;;;;;;;6.05;3.00;;;;;;;;;;4892355;29;20555;-74
2022/02/05 13:04:30;;;;;;;7.65;2.65;;;;;;;;;;4912601;29;20056;-74
2022/02/05 13:07:12;;;;;;;5.57;2.75;;;;;;;;;;4912389;29;20052;-75
2022/02/05 13:09:50;;;;;;;8.70;2.60;;;;;;;;;;4912354;29;20060;-75
2022/02/05 13:12:29;;;;;;;7.32;3.50;;;;;;;;;;4914232;29;20051;-76
2022/02/05 13:15:08;;;;;;;5.00;3.20;;;;;;;;;;4935353;29;20054;-76
2022/02/05 13:17:46;;;;;;;7.82;3.20;;;;;;;;;;4951731;29;20553;-76
2022/02/05 13:24:49;;;;;;;5.82;3.30;;;;;;;;;;4951638;29;20055;-75
2022/02/05 13:26:53;;;;;;;6.70;3.47;;;;;;;;;;4950510;28;20467;-76
2022/02/05 13:29:38;;;;;;;7.03;3.45;;;;;;;;;;4950673;28;20504;-76
2022/02/05 13:35:04;;;;;;;6.30;3.40;;;;;;;;;;4951351;29;20047;-77
2022/02/05 13:37:49;;;;;;;7.85;4.03;;;;;;;;;;4970054;28;20055;-75
2022/02/05 13:40:19;;;;;;;;;;;;;;;;;;4975605;28;20053;-76
2022/02/05 13:42:52;;;;;;;6.07;3.72;;;;;;;;;;4989533;28;19922;-76
2022/02/05 13:45:33;;;;;;;7.15;3.72;;;;;;;;;;4989736;28;20062;-76
2022/02/05 13:48:05;;;;;;;6.10;3.70;;;;;;;;;;4957744;28;20085;-75
2022/02/05 13:50:37;;;;;;;7.03;3.72;;;;;;;;;;4988987;28;20054;-78
2022/02/05 13:53:13;;;;;;;8.35;4.03;;;;;;;;;;4989399;28;20047;-75
2022/02/05 13:55:50;;;;;;;8.88;4.10;;;;;;;;;;4989259;28;20050;-77
2022/02/05 13:58:20;;;;;;;7.95;3.58;;;;;;;;;;4924776;28;20042;-76
2022/02/05 14:01:03;;;;;;;5.68;3.20;;;;;;;;;;4938038;28;20058;-75
2022/02/05 14:03:41;;;;;;;7.70;3.17;;;;;;;;;;4955861;28;20066;-76
2022/02/05 14:06:16;;;;;;;4.32;2.72;;;;;;;;;;4970166;28;20403;-76
2022/02/05 14:08:49;;;;;;;6.07;2.08;;;;;;;;;;4969985;28;20066;-74
2022/02/05 14:11:29;;;;;;;3.55;1.70;;;;;;;;;;4971053;28;20050;-74
2022/02/05 14:14:03;;;;;;;3.63;1.80;;;;;;;;;;5010762;28;20054;-77
2022/02/05 14:16:37;;;;;;;2.67;1.70;;;;;;;;;;4989128;28;20053;-74
2022/02/05 14:19:08;;;;;;;5.20;1.60;;;;;;;;;;4989409;28;20158;-76
2022/02/05 14:21:48;;;;;;;5.15;2.10;;;;;;;;;;4940997;28;20414;-72
2022/02/05 14:24:25;;;;;;;2.47;1.67;;;;;;;;;;4950354;29;20495;-72
2022/02/05 14:27:10;;;;;;;3.30;1.77;;;;;;;;;;4919387;29;20059;-73
2022/02/05 14:32:27;;;;;;;2.83;1.55;;;;;;;;;;4877480;29;20070;-74
2022/02/05 14:35:05;;;;;;;2.97;1.25;;;;;;;;;;4915276;29;20139;-74
2022/02/05 14:40:42;;;;;;;1.92;1.30;;;;;;;;;;4881085;29;20055;-76
2022/02/05 14:43:16;;;;;;;2.67;1.60;;;;;;;;;;4897299;29;20060;-74
2022/02/05 14:45:47;;;;;;;1.90;1.23;;;;;;;;;;4881443;29;20528;-75
2022/02/05 14:48:17;;;;;;;2.30;1.45;;;;;;;;;;4897374;29;20072;-74
2022/02/05 14:50:49;;;;;;;2.88;1.30;;;;;;;;;;4866649;29;20061;-75
2022/02/05 14:53:19;;;;;;;;;;;;;;;;;;4871043;29;20062;-74
2022/02/05 14:55:50;;;;;;;3.45;1.50;;;;;;;;;;4947579;29;20366;-77
2022/02/05 14:58:20;;;;;;;3.10;1.30;;;;;;;;;;4954021;29;20051;-76
2022/02/05 15:00:50;;;;;;;2.88;1.55;;;;;;;;;;4937972;29;20059;-76
2022/02/05 15:03:20;;;;;;;7.32;1.55;;;;;;;;;;4906558;29;20416;-73
2022/02/05 15:05:51;;;;;;;6.45;1.63;;;;;;;;;;4953819;29;20055;-73
2022/02/05 15:08:21;;;;;;;4.65;1.98;;;;;;;;;;4954104;29;20050;-72
2022/02/05 15:10:51;;;;;;;2.97;1.65;;;;;;;;;;4921718;29;20063;-73
2022/02/05 15:13:21;;;;;;;3.53;1.77;;;;;;;;;;4953962;29;20074;-70
2022/02/05 15:15:53;;;;;;;2.70;1.42;;;;;;;;;;4953741;29;20058;-73
2022/02/05 15:18:24;;;;;;;3.08;1.67;;;;;;;;;;4958563;28;20050;-73
2022/02/05 15:20:54;;;;;;;2.67;1.60;;;;;;;;;;4995398;28;20068;-74
2022/02/05 15:23:24;;;;;;;3.90;1.70;;;;;;;;;;5011860;28;20065;-70
2022/02/05 15:25:59;;;;;;;3.25;1.50;;;;;;;;;;5011850;28;20054;-70
2022/02/05 15:28:30;;;;;;;4.95;1.95;;;;;;;;;;5011932;28;20072;-73
2022/02/05 15:31:02;;;;;;;5.72;1.88;;;;;;;;;;5011588;28;20058;-72
2022/02/05 15:33:33;;;;;;;5.07;1.92;;;;;;;;;;4963015;28;20093;-73
2022/02/05 15:36:05;;;;;;;3.63;1.80;;;;;;;;;;4991822;28;20050;-75
2022/02/05 15:38:45;;;;;;;3.08;1.70;;;;;;;;;;4976163;28;20058;-74
2022/02/05 15:44:06;;;;;;;8.57;1.80;;;;;;;;;;4991938;28;20054;-72
2022/02/05 15:46:36;;;;;;;1.80;1.23;;;;;;;;;;4959274;28;20720;-75
2022/02/05 15:49:07;;;;;;;2.65;1.52;;;;;;;;;;4990842;28;20069;-75
2022/02/05 15:51:54;;;;;;;2.63;1.40;;;;;;;;;;4946187;28;20054;-73
2022/02/05 15:54:27;;;;;;;2.50;1.40;;;;;;;;;;4991869;28;20069;-73
2022/02/05 16:02:18;;;;;;;2.65;1.40;;;;;;;;;;4952455;29;20055;-72
2022/02/05 16:04:49;;;;;;;2.97;1.50;;;;;;;;;;4952555;29;20059;-70
2022/02/05 16:07:18;;;;;;;3.28;1.40;;;;;;;;;;4952279;29;20090;-73
2022/02/05 16:09:49;;;;;;;2.70;1.50;;;;;;;;;;4933002;29;20058;-73
2022/02/05 16:12:19;;;;;;;2.75;1.42;;;;;;;;;;4917587;29;20059;-74
2022/02/05 16:14:50;;;;;;;3.42;1.25;;;;;;;;;;4970247;28;20054;-72
2022/02/05 16:17:22;;;;;;;2.63;1.40;;;;;;;;;;4939531;28;20092;-73
2022/02/05 16:19:52;;;;;;;2.60;1.52;;;;;;;;;;4971712;28;20063;-74
2022/02/05 16:22:23;;;;;;;2.67;1.40;;;;;;;;;;4971569;28;20059;-71
2022/02/05 16:24:53;;;;;;;3.55;1.77;;;;;;;;;;4939519;28;20062;-68
2022/02/05 16:27:25;;;;;;;3.35;1.40;;;;;;;;;;4955332;28;20067;-73
2022/02/05 16:29:58;;;;;;;2.88;1.65;;;;;;;;;;4971782;28;20057;-71
2022/02/05 16:32:29;;;;;;;3.78;1.63;;;;;;;;;;4935664;29;20051;-72
2022/02/05 16:35:03;;;;;;;2.50;1.55;;;;;;;;;;4951614;29;20050;-72
2022/02/05 16:37:37;;;;;;;3.60;1.80;;;;;;;;;;4951920;29;20055;-72
2022/02/05 16:40:11;;;;;;;4.68;1.70;;;;;;;;;;4936755;28;20061;-72
2022/02/05 16:42:42;;;;;;;4.13;1.40;;;;;;;;;;4928231;28;20502;-73
2022/02/05 16:45:14;;;;;;;2.67;1.42;;;;;;;;;;4943038;28;20054;-74
2022/02/05 16:47:44;;;;;;;2.25;1.30;;;;;;;;;;4951571;29;20124;-73
2022/02/05 16:50:14;;;;;;;2.60;1.50;;;;;;;;;;4919983;29;20181;-74
2022/02/05 16:52:50;;;;;;;2.42;1.40;;;;;;;;;;4951822;29;20051;-74
2022/02/05 16:55:20;;;;;;;2.67;1.40;;;;;;;;;;4919906;29;20055;-71
2022/02/05 16:57:51;;;;;;;2.60;1.58;;;;;;;;;;4951706;29;20059;-72
2022/02/05 17:00:22;;;;;;;2.30;1.50;;;;;;;;;;4951583;28;20062;-73
2022/02/05 17:02:52;;;;;;;3.22;2.00;;;;;;;;;;4951507;29;20062;-70
2022/02/05 17:05:24;;;;;;;3.58;1.45;;;;;;;;;;4897597;29;20052;-70
2022/02/05 17:07:59;;;;;;;2.47;1.50;;;;;;;;;;4913420;29;20064;-71
2022/02/05 17:10:31;;;;;;;2.40;1.35;;;;;;;;;;4897729;29;20060;-74
2022/02/05 17:13:04;;;;;;;2.25;1.20;;;;;;;;;;4938702;29;20059;-72
2022/02/05 17:15:35;;;;;;;3.05;1.45;;;;;;;;;;4951312;29;20430;-73
2022/02/05 17:18:11;;;;;;;1.95;1.15;;;;;;;;;;4951553;29;20495;-74
2022/02/05 17:20:49;;;;;;;2.65;1.33;;;;;;;;;;4951165;29;20051;-74
2022/02/05 17:23:28;;;;;;;3.95;1.63;;;;;;;;;;4934573;29;20124;-73
2022/02/05 17:26:01;;;;;;;1.70;1.10;;;;;;;;;;4959664;28;20062;-74
2022/02/05 17:28:32;;;;;;;2.10;1.23;;;;;;;;;;4948961;28;20065;-74
2022/02/05 17:31:02;;;;;;;2.03;1.20;;;;;;;;;;4969213;28;20490;-72
2022/02/05 17:33:33;;;;;;;5.10;1.10;;;;;;;;;;4949295;28;20170;-73
2022/02/05 17:36:06;;;;;;;2.33;1.45;;;;;;;;;;4951724;28;20062;-74
2022/02/05 17:38:37;;;;;;;2.20;1.15;;;;;;;;;;4937372;28;20059;-73
2022/02/05 17:41:07;;;;;;;1.98;1.27;;;;;;;;;;4988176;28;20050;-72
2022/02/05 17:43:37;;;;;;;2.38;1.33;;;;;;;;;;4988517;28;20077;-73
2022/02/05 17:46:07;;;;;;;2.28;1.30;;;;;;;;;;4940570;28;20058;-73
2022/02/05 17:48:38;;;;;;;1.50;1.17;;;;;;;;;;4988335;28;20062;-71
2022/02/05 17:51:09;;;;;;;1.90;1.40;;;;;;;;;;4988434;28;20153;-74
2022/02/05 17:53:39;;;;;;;2.00;1.20;;;;;;;;;;4989727;28;20426;-72
2022/02/05 17:56:10;;;;;;;2.70;1.30;;;;;;;;;;4989462;28;20070;-74